Time;durP1;ratioP1;P1;durP2;ratioP2;P2;SDS_P1;SDS_P2;PMS_P1;PMS_P2;Temp;Humidity;BMP_temperature;BMP_pressure;BME280_temperature;BME280_humidity;BME280_pressure;Samples;Min_cycle;Max_cycle;Signal;HPM_P1;HPM_P2
2022/06/27 00:00:20;;;;;;;7.57;5.97;;;;;;;18.10;100.00;100223.50;4933488;28;20094;-71
2022/06/27 00:02:47;;;;;;;6.40;5.80;;;;;;;17.87;100.00;100203.91;4928313;28;20448;-71
2022/06/27 00:05:14;;;;;;;6.60;6.00;;;;;;;18.01;100.00;100227.75;4932405;29;20082;-70
2022/06/27 00:07:41;;;;;;;6.85;6.18;;;;;;;17.93;100.00;100211.44;4931171;28;20146;-70
2022/06/27 00:10:08;;;;;;;8.43;5.95;;;;;;;18.02;100.00;100236.63;4927106;28;20068;-71
2022/06/27 00:12:36;;;;;;;7.15;6.32;;;;;;;17.86;100.00;100180.75;4933555;28;20079;-71
2022/06/27 00:15:04;;;;;;;8.95;6.32;;;;;;;17.95;100.00;100165.75;4929064;28;20126;-72
2022/06/27 00:17:30;;;;;;;8.95;6.32;;;;;;;18.22;100.00;100184.97;4931194;28;20048;-72
2022/06/27 00:20:00;;;;;;;12.18;6.68;;;;;;;18.30;100.00;100177.13;4931797;28;20062;-74
2022/06/27 00:22:27;;;;;;;9.70;6.80;;;;;;;18.30;100.00;100166.41;4930407;28;20447;-73
2022/06/27 00:24:54;;;;;;;7.60;6.43;;;;;;;18.22;100.00;100168.88;4930577;28;20083;-73
2022/06/27 00:27:21;;;;;;;12.02;7.50;;;;;;;18.22;100.00;100185.81;4930524;28;20059;-72
2022/06/27 00:29:47;;;;;;;9.85;7.20;;;;;;;18.24;100.00;100183.00;4931081;28;20051;-73
2022/06/27 00:32:16;;;;;;;11.82;7.53;;;;;;;18.27;100.00;100181.88;4928896;28;20056;-73
2022/06/27 00:34:43;;;;;;;9.55;7.65;;;;;;;18.24;100.00;100164.25;4930304;28;20074;-73
2022/06/27 00:37:09;;;;;;;8.98;7.93;;;;;;;18.31;100.00;100173.47;4931963;28;20127;-72
2022/06/27 00:39:36;;;;;;;9.05;8.00;;;;;;;18.29;100.00;100161.16;4931047;28;20043;-71
2022/06/27 00:42:03;;;;;;;9.85;8.48;;;;;;;18.34;100.00;100156.28;4936585;28;20063;-72
2022/06/27 00:44:42;;;;;;;10.48;8.57;;;;;;;18.30;100.00;100128.03;4930011;28;20059;-70
2022/06/27 00:47:12;;;;;;;10.48;9.02;;;;;;;18.33;100.00;100107.19;4924410;29;20146;-74
2022/06/27 00:49:38;;;;;;;11.95;9.77;;;;;;;18.40;100.00;100132.50;4927771;28;20146;-74
2022/06/27 00:52:08;;;;;;;11.75;9.35;;;;;;;18.35;100.00;100137.41;4929881;28;20056;-72
2022/06/27 00:54:36;;;;;;;10.85;9.73;;;;;;;18.39;100.00;100152.25;4929547;28;20074;-71
2022/06/27 00:57:04;;;;;;;12.10;10.45;;;;;;;18.22;100.00;100134.03;4934180;28;20060;-74
2022/06/27 00:59:32;;;;;;;11.25;9.82;;;;;;;18.42;100.00;100165.38;4928461;28;20058;-73
2022/06/27 01:01:59;;;;;;;10.10;9.13;;;;;;;18.27;100.00;100171.16;4927515;29;20048;-72
2022/06/27 01:04:25;;;;;;;9.93;9.00;;;;;;;18.13;100.00;100174.97;4928260;28;20109;-73
2022/06/27 01:06:52;;;;;;;10.70;9.48;;;;;;;18.21;100.00;100185.94;4933132;28;20079;-71
2022/06/27 01:09:20;;;;;;;11.18;9.85;;;;;;;18.20;100.00;100173.50;4927783;28;20048;-71
2022/06/27 01:11:48;;;;;;;13.93;10.88;;;;;;;18.35;100.00;100203.56;4931731;28;20063;-72
2022/06/27 01:14:15;;;;;;;12.68;10.57;;;;;;;18.31;100.00;100211.00;4931949;28;20131;-71
2022/06/27 01:16:42;;;;;;;10.75;9.65;;;;;;;18.49;100.00;100273.84;4930803;28;20074;-71
2022/06/27 01:19:10;;;;;;;11.00;9.90;;;;;;;18.52;100.00;100291.53;4931761;28;20063;-73
2022/06/27 01:21:57;;;;;;;10.32;9.43;;;;;;;18.67;100.00;100310.91;4930566;28;20586;-70
2022/06/27 01:24:27;;;;;;;10.13;9.13;;;;;;;18.53;100.00;100294.09;4926791;28;20097;-72
2022/06/27 01:26:55;;;;;;;10.33;9.30;;;;;;;18.72;100.00;100316.75;4933089;28;20066;-71
2022/06/27 01:29:21;;;;;;;10.80;9.68;;;;;;;18.64;100.00;100305.78;4933800;28;20055;-73
2022/06/27 01:31:49;;;;;;;13.48;10.75;;;;;;;18.69;100.00;100319.69;4929549;28;20047;-71
2022/06/27 01:34:17;;;;;;;11.65;10.45;;;;;;;18.76;100.00;100324.41;4933899;28;20519;-71
2022/06/27 01:36:46;;;;;;;11.27;10.18;;;;;;;18.71;100.00;100307.00;4926290;28;20126;-72
2022/06/27 01:39:19;;;;;;;15.27;10.95;;;;;;;18.70;100.00;100299.94;4924936;29;20071;-71
2022/06/27 01:41:50;;;;;;;12.25;10.40;;;;;;;18.57;100.00;100270.56;4931936;28;20055;-71
2022/06/27 01:44:18;;;;;;;12.00;10.77;;;;;;;18.56;100.00;100258.97;4936070;28;20079;-72
2022/06/27 01:46:46;;;;;;;12.77;10.90;;;;;;;18.53;100.00;100243.13;4930575;28;20480;-73
2022/06/27 01:49:15;;;;;;;13.82;10.95;;;;;;;18.41;100.00;100217.34;4932503;28;20055;-73
2022/06/27 01:51:44;;;;;;;12.63;11.18;;;;;;;18.24;100.00;100188.38;4938542;28;20627;-69
2022/06/27 01:54:12;;;;;;;13.20;11.55;;;;;;;18.36;100.00;100210.63;4928527;28;20116;-71
2022/06/27 01:56:41;;;;;;;13.95;12.43;;;;;;;18.39;100.00;100194.31;4930937;28;20486;-75
2022/06/27 01:59:09;;;;;;;14.32;12.90;;;;;;;18.32;100.00;100169.81;4925525;28;20504;-72
2022/06/27 02:01:35;;;;;;;13.35;11.85;;;;;;;18.28;100.00;100173.72;4927174;29;20120;-72
2022/06/27 02:04:02;;;;;;;14.98;13.15;;;;;;;18.28;100.00;100163.00;4931237;28;20538;-73
2022/06/27 02:06:30;;;;;;;14.25;12.70;;;;;;;18.27;100.00;100139.84;4930534;28;20048;-72
2022/06/27 02:08:58;;;;;;;15.73;14.13;;;;;;;18.28;100.00;100127.31;4934123;28;20106;-74
2022/06/27 02:11:26;;;;;;;16.52;13.80;;;;;;;18.39;100.00;100135.31;4930302;28;20051;-75
2022/06/27 02:13:55;;;;;;;18.25;14.23;;;;;;;18.42;100.00;100116.28;4922142;29;20062;-73
2022/06/27 02:16:22;;;;;;;24.27;14.32;;;;;;;18.44;100.00;100098.22;4928403;28;20047;-73
2022/06/27 02:18:49;;;;;;;16.08;13.95;;;;;;;18.38;100.00;100058.56;4931554;28;20043;-72
2022/06/27 02:21:19;;;;;;;14.52;13.02;;;;;;;18.36;100.00;100045.28;4935244;28;20102;-73
2022/06/27 02:23:46;;;;;;;14.50;13.10;;;;;;;18.30;100.00;100018.97;4928556;28;20895;-73
2022/06/27 02:26:14;;;;;;;14.65;11.98;;;;;;;18.23;100.00;100013.31;4930439;28;20071;-73
2022/06/27 02:28:42;;;;;;;14.23;11.77;;;;;;;18.20;100.00;100018.91;4930305;28;20370;-72
2022/06/27 02:31:10;;;;;;;14.70;11.05;;;;;;;18.09;100.00;100015.47;4929888;28;20056;-73
2022/06/27 02:33:39;;;;;;;10.55;8.80;;;;;;;18.09;100.00;100026.19;4926484;28;20059;-73
2022/06/27 02:36:09;;;;;;;10.20;9.10;;;;;;;18.01;100.00;100025.94;4935401;28;20090;-73
2022/06/27 02:38:39;;;;;;;9.32;8.40;;;;;;;18.01;100.00;100025.94;4928670;29;20126;-73
2022/06/27 02:41:09;;;;;;;10.55;8.52;;;;;;;17.99;100.00;100007.31;4934470;28;20051;-72
2022/06/27 02:43:38;;;;;;;9.02;8.23;;;;;;;17.93;100.00;99981.06;4935802;28;20126;-72
2022/06/27 02:46:05;;;;;;;9.63;8.63;;;;;;;18.02;100.00;99993.69;4928764;28;20147;-73
2022/06/27 02:48:33;;;;;;;9.88;8.98;;;;;;;18.01;100.00;99967.84;4935214;28;20052;-72
2022/06/27 02:51:05;;;;;;;9.77;8.45;;;;;;;18.03;100.00;99965.06;4936119;28;20563;-73
2022/06/27 02:53:40;;;;;;;9.95;8.88;;;;;;;18.01;100.00;99954.47;4932192;28;20083;-73
2022/06/27 02:56:10;;;;;;;8.68;7.78;;;;;;;17.98;100.00;99976.16;4936999;28;20051;-72
2022/06/27 02:58:45;;;;;;;8.98;7.70;;;;;;;17.84;100.00;99974.63;4938547;28;20062;-71
2022/06/27 03:01:12;;;;;;;11.55;8.77;;;;;;;17.98;100.00;99997.59;4933605;28;20063;-73
2022/06/27 03:03:41;;;;;;;8.52;7.70;;;;;;;18.02;100.00;99998.19;4933360;28;20501;-74
2022/06/27 03:06:08;;;;;;;8.52;7.60;;;;;;;18.06;100.00;100000.47;4934213;28;20052;-73
2022/06/27 03:08:46;;;;;;;8.65;7.85;;;;;;;18.01;100.00;100004.50;4932144;28;20067;-73
2022/06/27 03:11:23;;;;;;;9.77;6.80;;;;;;;17.92;100.00;100008.81;4933975;28;20056;-71
2022/06/27 03:13:52;;;;;;;8.18;7.45;;;;;;;17.95;100.00;100018.41;4932827;28;20131;-71
2022/06/27 03:16:19;;;;;;;7.93;7.22;;;;;;;17.84;100.00;99997.88;4928974;28;20665;-75
2022/06/27 03:18:48;;;;;;;8.60;7.70;;;;;;;17.72;100.00;99969.47;4931332;28;20052;-73
2022/06/27 03:21:17;;;;;;;10.00;7.38;;;;;;;17.88;100.00;100004.69;4936306;28;20062;-72
2022/06/27 03:23:48;;;;;;;9.32;7.60;;;;;;;17.75;100.00;99971.88;4933125;28;20131;-71
2022/06/27 03:26:17;;;;;;;8.38;7.68;;;;;;;17.86;100.00;99991.44;4932564;28;20159;-72
2022/06/27 03:28:45;;;;;;;8.25;7.45;;;;;;;17.79;100.00;99994.72;4927645;28;20075;-73
2022/06/27 03:31:13;;;;;;;10.57;7.47;;;;;;;17.87;100.00;100030.63;4928276;29;20146;-74
2022/06/27 03:33:40;;;;;;;7.45;6.75;;;;;;;17.78;100.00;100009.97;4929740;28;20047;-72
2022/06/27 03:36:08;;;;;;;9.88;7.72;;;;;;;17.88;100.00;100031.47;4935351;28;20079;-71
2022/06/27 03:38:35;;;;;;;9.88;8.40;;;;;;;17.92;100.00;100043.66;4938787;28;20079;-74
2022/06/27 03:41:02;;;;;;;9.00;8.07;;;;;;;17.96;100.00;100065.66;4927268;29;20548;-74
2022/06/27 03:43:29;;;;;;;8.70;7.78;;;;;;;18.01;100.00;100069.66;4935873;28;20463;-71
2022/06/27 03:45:56;;;;;;;8.10;7.30;;;;;;;17.96;100.00;100049.59;4933355;28;20060;-71
2022/06/27 03:51:10;;;;;;;8.00;7.20;;;;;;;18.06;100.00;100069.28;4931635;28;20106;-71
2022/06/27 03:53:37;;;;;;;9.55;6.65;;;;;;;17.83;100.00;100023.81;4931892;28;20055;-72
2022/06/27 03:56:04;;;;;;;8.02;6.55;;;;;;;17.91;100.00;100041.94;4935188;28;20507;-73
2022/06/27 03:58:30;;;;;;;8.30;6.75;;;;;;;17.90;100.00;100045.59;4930122;28;20087;-71
2022/06/27 04:00:57;;;;;;;9.27;7.45;;;;;;;17.93;100.00;100064.09;4929968;28;20500;-73
2022/06/27 04:03:24;;;;;;;8.23;6.28;;;;;;;17.97;100.00;100078.94;4931879;29;20055;-72
2022/06/27 04:05:51;;;;;;;7.50;6.80;;;;;;;18.01;100.00;100096.47;4938446;28;20054;-72
2022/06/27 04:08:18;;;;;;;8.10;7.15;;;;;;;18.00;100.00;100088.53;4923020;28;20369;-75
2022/06/27 04:10:45;;;;;;;8.38;7.13;;;;;;;18.05;100.00;100097.06;4936277;28;20044;-72
2022/06/27 04:13:11;;;;;;;7.82;6.28;;;;;;;18.08;100.00;100107.53;4929209;28;20048;-73
2022/06/27 04:15:39;;;;;;;7.22;6.32;;;;;;;18.08;100.00;100083.41;4930628;28;20556;-72
2022/06/27 04:18:06;;;;;;;8.30;6.57;;;;;;;18.04;100.00;100063.22;4929215;28;20051;-73
2022/06/27 04:20:32;;;;;;;7.53;6.00;;;;;;;18.12;100.00;100074.13;4932522;28;20051;-73
2022/06/27 04:22:59;;;;;;;8.13;6.13;;;;;;;18.15;100.00;100092.63;4935458;29;20475;-71
2022/06/27 04:25:25;;;;;;;7.00;6.30;;;;;;;18.10;100.00;100089.50;4938380;28;20071;-71
2022/06/27 04:27:52;;;;;;;6.15;5.60;;;;;;;18.15;100.00;100098.00;4930709;28;20138;-74
2022/06/27 04:30:19;;;;;;;8.98;6.57;;;;;;;18.11;100.00;100092.03;4932244;28;20083;-71
2022/06/27 04:32:48;;;;;;;8.40;5.72;;;;;;;18.06;100.00;100083.53;4929320;28;20043;-71
2022/06/27 04:35:15;;;;;;;7.00;6.30;;;;;;;18.15;100.00;100096.16;4935838;28;20118;-74
2022/06/27 04:37:43;;;;;;;7.63;6.85;;;;;;;18.16;100.00;100103.22;4929874;29;20079;-71
2022/06/27 04:40:11;;;;;;;7.38;6.50;;;;;;;18.21;100.00;100092.13;4928075;28;20079;-72
2022/06/27 04:42:40;;;;;;;6.50;5.93;;;;;;;18.19;100.00;100078.00;4928137;28;20052;-71
2022/06/27 04:45:13;;;;;;;8.05;7.15;;;;;;;18.29;100.00;100076.25;4927878;28;20070;-72
2022/06/27 04:47:44;;;;;;;7.63;6.72;;;;;;;18.32;100.00;100077.81;4934051;28;20052;-71
2022/06/27 04:50:13;;;;;;;8.98;8.10;;;;;;;18.21;100.00;100074.22;4931328;28;20067;-70
2022/06/27 04:52:40;;;;;;;9.73;8.77;;;;;;;18.25;100.00;100115.03;4934473;28;20138;-71
2022/06/27 04:55:09;;;;;;;10.27;9.05;;;;;;;18.23;100.00;100131.25;4925385;29;20043;-72
2022/06/27 04:57:37;;;;;;;11.48;9.82;;;;;;;18.12;100.00;100108.97;4923414;28;20044;-72
2022/06/27 05:00:08;;;;;;;11.35;10.15;;;;;;;18.29;100.00;100134.38;4927901;28;20063;-71
2022/06/27 05:02:35;;;;;;;12.60;11.30;;;;;;;18.30;100.00;100134.25;4929728;28;20060;-71
2022/06/27 05:05:03;;;;;;;12.57;11.18;;;;;;;18.25;100.00;100115.03;4931153;28;20056;-70
2022/06/27 05:07:31;;;;;;;13.82;12.43;;;;;;;18.34;100.00;100124.97;4929936;28;20071;-71
2022/06/27 05:09:58;;;;;;;18.23;13.45;;;;;;;18.26;100.00;100113.22;4929760;28;20504;-71
2022/06/27 05:12:26;;;;;;;15.35;13.70;;;;;;;18.39;100.00;100129.97;4926729;28;20048;-71
2022/06/27 05:14:54;;;;;;;16.13;14.45;;;;;;;18.36;100.00;100131.06;4928880;28;20574;-70
2022/06/27 05:17:21;;;;;;;16.33;14.52;;;;;;;18.38;100.00;100125.56;4931140;28;20055;-70
2022/06/27 05:19:48;;;;;;;16.75;14.95;;;;;;;18.41;100.00;100130.69;4930750;29;20131;-71
2022/06/27 05:22:15;;;;;;;16.80;15.05;;;;;;;18.53;100.00;100135.00;4926920;28;20443;-71
2022/06/27 05:24:41;;;;;;;18.70;14.73;;;;;;;18.56;100.00;100140.13;4934614;28;20048;-70
2022/06/27 05:27:13;;;;;;;17.42;13.18;;;;;;;18.61;100.00;100150.47;4931299;28;20058;-70
2022/06/27 05:29:39;;;;;;;16.63;13.55;;;;;;;18.64;100.00;100163.63;4930995;28;20330;-70
2022/06/27 05:32:07;;;;;;;14.32;12.82;;;;;;;18.73;100.00;100154.84;4924569;28;20059;-72
2022/06/27 05:34:33;;;;;;;13.45;12.05;;;;;;;18.85;100.00;100157.31;4927119;28;20099;-71
2022/06/27 05:37:00;;;;;;;12.95;11.35;;;;;;;18.89;100.00;100157.88;4928288;28;20066;-72
2022/06/27 05:39:27;;;;;;;11.40;10.30;;;;;;;18.89;100.00;100157.88;4928753;29;20055;-71
2022/06/27 05:41:54;;;;;;;9.88;8.98;;;;;;;19.02;100.00;100171.13;4928785;28;20079;-70
2022/06/27 05:44:21;;;;;;;11.60;8.90;;;;;;;19.06;100.00;100157.28;4927761;28;20139;-70
2022/06/27 05:46:48;;;;;;;9.25;8.20;;;;;;;19.20;100.00;100156.94;4925127;28;20488;-69
2022/06/27 05:49:16;;;;;;;9.60;7.40;;;;;;;19.28;100.00;100170.56;4928394;28;20142;-69
2022/06/27 05:51:44;;;;;;;8.38;7.63;;;;;;;19.45;100.00;100179.00;4929687;28;20551;-70
2022/06/27 05:54:12;;;;;;;7.10;6.38;;;;;;;19.52;100.00;100166.75;4929557;28;20057;-69
2022/06/27 05:56:39;;;;;;;8.93;7.10;;;;;;;19.74;100.00;100195.28;4928800;28;20083;-69
2022/06/27 05:59:06;;;;;;;8.57;7.65;;;;;;;19.82;100.00;100212.44;4926571;28;20115;-70
2022/06/27 06:01:33;;;;;;;9.10;8.18;;;;;;;19.69;100.00;100197.50;4920356;28;20052;-71
2022/06/27 06:04:00;;;;;;;11.48;9.13;;;;;;;19.78;100.00;100205.63;4930719;28;20088;-69
2022/06/27 06:06:28;;;;;;;10.32;9.07;;;;;;;19.67;100.00;100178.88;4925172;28;20051;-69
2022/06/27 06:08:55;;;;;;;12.00;9.80;;;;;;;19.66;100.00;100198.66;4926504;28;20103;-70
2022/06/27 06:11:24;;;;;;;11.20;10.02;;;;;;;19.51;100.00;100175.81;4928559;28;20443;-70
2022/06/27 06:13:52;;;;;;;13.18;9.77;;;;;;;19.53;100.00;100155.88;4923538;28;20146;-71
2022/06/27 06:16:20;;;;;;;11.88;9.13;;;;;;;19.68;100.00;100191.28;4928731;28;20059;-70
2022/06/27 06:18:52;;;;;;;10.07;8.40;;;;;;;19.62;100.00;100199.91;4924649;28;20090;-70
2022/06/27 06:21:21;;;;;;;12.45;8.85;;;;;;;19.86;100.00;100223.75;4927234;28;20760;-70
2022/06/27 06:23:49;;;;;;;8.90;7.97;;;;;;;20.04;100.00;100232.88;4916469;28;20058;-71
2022/06/27 06:26:16;;;;;;;8.27;7.45;;;;;;;20.13;100.00;100226.69;4923233;28;20051;-70
2022/06/27 06:28:44;;;;;;;9.50;7.30;;;;;;;19.96;100.00;100241.63;4924653;28;20054;-70
2022/06/27 06:31:15;;;;;;;10.75;7.90;;;;;;;19.70;100.00;100243.03;4925319;28;20069;-70
2022/06/27 06:33:42;;;;;;;10.07;7.90;;;;;;;19.53;100.00;100238.28;4925544;28;20134;-70
2022/06/27 06:36:09;;;;;;;11.82;8.05;;;;;;;19.43;100.00;100240.03;4925011;28;20044;-69
2022/06/27 06:38:36;;;;;;;12.23;8.85;;;;;;;19.36;100.00;100239.72;4921223;28;20130;-71
2022/06/27 06:41:03;;;;;;;9.35;8.40;;;;;;;19.41;100.00;100231.25;4923402;28;20064;-71
2022/06/27 06:43:29;;;;;;;12.05;8.48;;;;;;;19.28;100.00;100202.78;4919915;28;20055;-70
2022/06/27 06:45:58;;;;;;;12.80;8.57;;;;;;;19.27;100.00;100206.47;4920852;28;20087;-71
2022/06/27 06:48:25;;;;;;;13.88;8.27;;;;;;;19.32;100.00;100224.88;4916006;29;20416;-70
2022/06/27 06:50:54;;;;;;;10.23;7.78;;;;;;;19.35;100.00;100229.97;4922976;28;20051;-70
2022/06/27 06:53:21;;;;;;;11.10;7.85;;;;;;;19.50;100.00;100230.53;4916180;29;20062;-69
2022/06/27 06:55:48;;;;;;;9.88;7.28;;;;;;;19.59;100.00;100230.56;4923372;28;20091;-68
2022/06/27 06:58:15;;;;;;;8.82;7.80;;;;;;;19.59;100.00;100249.38;4920939;28;20058;-70
2022/06/27 07:00:41;;;;;;;9.73;7.43;;;;;;;19.60;100.00;100251.06;4921074;28;20052;-70
2022/06/27 07:03:09;;;;;;;8.05;7.35;;;;;;;19.54;100.00;100215.81;4921463;28;20052;-70
2022/06/27 07:05:37;;;;;;;9.52;8.20;;;;;;;19.83;100.00;100235.59;4924411;28;20464;-70
2022/06/27 07:08:05;;;;;;;11.25;7.57;;;;;;;19.91;100.00;100234.94;4923872;28;20052;-70
2022/06/27 07:10:31;;;;;;;12.90;8.00;;;;;;;19.87;100.00;100234.34;4924112;28;20036;-69
2022/06/27 07:12:58;;;;;;;10.07;7.45;;;;;;;19.79;100.00;100236.88;4923682;28;20560;-69
2022/06/27 07:15:25;;;;;;;10.52;8.52;;;;;;;19.67;100.00;100211.09;4920579;28;20063;-69
2022/06/27 07:17:52;;;;;;;10.98;8.20;;;;;;;19.93;100.00;100220.38;4925522;28;20111;-68
2022/06/27 07:20:20;;;;;;;10.70;8.13;;;;;;;20.17;100.00;100225.41;4925394;28;20103;-69
2022/06/27 07:22:48;;;;;;;12.88;7.72;;;;;;;20.35;100.00;100224.75;4924001;28;20115;-68
2022/06/27 07:25:17;;;;;;;9.52;7.38;;;;;;;20.59;99.52;100242.25;4918962;28;20119;-71
2022/06/27 07:27:44;;;;;;;9.07;7.10;;;;;;;20.67;96.81;100228.06;4923234;28;20063;-70
2022/06/27 07:30:13;;;;;;;8.77;6.63;;;;;;;20.97;97.89;100216.31;4920856;28;20059;-69
2022/06/27 07:32:41;;;;;;;9.63;6.03;;;;;;;21.58;94.10;100253.66;4920839;28;20083;-70
2022/06/27 07:35:11;;;;;;;7.90;6.10;;;;;;;21.95;88.75;100259.94;4924476;28;20133;-70
2022/06/27 07:37:47;;;;;;;;;;;;;;;21.83;85.69;100266.53;4924300;28;20471;-70
2022/06/27 07:40:19;;;;;;;5.05;4.30;;;;;;;21.62;85.97;100272.09;4922519;28;19927;-69
2022/06/27 07:42:48;;;;;;;5.40;4.50;;;;;;;21.55;86.39;100267.47;4922266;28;20049;-70
2022/06/27 07:45:18;;;;;;;5.97;5.28;;;;;;;21.43;86.62;100269.44;4925457;28;20086;-71
2022/06/27 07:47:48;;;;;;;5.13;4.60;;;;;;;21.64;89.01;100282.75;4926806;28;20087;-72
2022/06/27 07:50:58;;;;;;;5.57;5.03;;;;;;;21.95;87.54;100269.88;4927657;28;20059;-68
2022/06/27 07:53:11;;;;;;;7.32;5.53;;;;;;;22.33;85.19;100283.22;4920717;28;20620;-71
2022/06/27 07:55:52;;;;;;;7.38;4.90;;;;;;;22.39;82.76;100257.47;4924953;28;20107;-69
2022/06/27 07:58:33;;;;;;;8.35;4.93;;;;;;;22.61;80.43;100286.75;4922201;28;20162;-71
2022/06/27 08:01:03;;;;;;;4.80;4.20;;;;;;;22.60;79.40;100268.84;4927319;29;20051;-71
2022/06/27 08:03:40;;;;;;;4.47;4.00;;;;;;;22.84;80.64;100270.13;4925479;28;20571;-70
2022/06/27 08:06:12;;;;;;;4.35;3.97;;;;;;;23.18;77.88;100271.13;4923825;28;20134;-70
2022/06/27 08:08:43;;;;;;;5.55;4.10;;;;;;;22.98;77.10;100275.03;4925941;29;20464;-70
2022/06/27 08:11:13;;;;;;;4.50;3.80;;;;;;;22.47;78.66;100287.25;4921691;28;20047;-71
2022/06/27 08:13:41;;;;;;;4.03;3.60;;;;;;;22.23;81.46;100285.09;4927586;28;20501;-70
2022/06/27 08:16:08;;;;;;;6.95;3.75;;;;;;;22.33;82.11;100283.22;4924697;28;20106;-70
2022/06/27 08:18:38;;;;;;;3.65;3.35;;;;;;;22.51;81.42;100290.53;4924319;28;20052;-69
2022/06/27 08:21:07;;;;;;;6.97;4.20;;;;;;;22.68;80.17;100286.97;4925529;28;20063;-71
2022/06/27 08:23:36;;;;;;;5.88;3.80;;;;;;;22.72;78.55;100288.38;4923994;29;20393;-71
2022/06/27 08:26:08;;;;;;;4.80;3.30;;;;;;;22.53;79.42;100259.66;4923571;28;20725;-71
2022/06/27 08:28:37;;;;;;;3.80;3.40;;;;;;;22.46;78.97;100290.13;4923788;28;20051;-71
2022/06/27 08:31:09;;;;;;;4.20;3.20;;;;;;;22.32;80.64;100286.06;4920490;29;20050;-70
2022/06/27 08:33:35;;;;;;;6.47;3.72;;;;;;;22.42;81.11;100277.91;4921900;28;20082;-69
2022/06/27 08:36:03;;;;;;;5.30;3.70;;;;;;;22.59;79.82;100263.59;4929177;28;20085;-70
2022/06/27 08:38:42;;;;;;;5.20;3.70;;;;;;;22.65;78.39;100258.47;4932759;28;20043;-71
2022/06/27 08:41:12;;;;;;;5.32;3.42;;;;;;;22.26;78.89;100248.91;4922324;29;20071;-70
2022/06/27 08:43:40;;;;;;;3.53;3.03;;;;;;;22.19;79.70;100259.44;4928242;28;20055;-71
2022/06/27 08:46:09;;;;;;;4.22;3.67;;;;;;;22.39;78.35;100290.69;4931117;28;20056;-71
2022/06/27 08:48:37;;;;;;;3.63;3.33;;;;;;;22.22;79.06;100301.44;4928631;28;20066;-70
2022/06/27 08:51:06;;;;;;;4.80;3.35;;;;;;;22.05;80.83;100290.44;4926023;28;20071;-70
2022/06/27 08:53:33;;;;;;;3.75;3.28;;;;;;;22.36;80.64;100282.91;4928135;28;20448;-70
2022/06/27 08:56:01;;;;;;;4.30;3.80;;;;;;;22.67;76.53;100304.16;4926606;28;20048;-69
2022/06/27 08:58:28;;;;;;;5.32;3.80;;;;;;;22.46;77.58;100314.41;4926292;29;20071;-70
2022/06/27 09:00:56;;;;;;;5.13;3.60;;;;;;;22.22;78.70;100317.63;4932242;28;20131;-70
2022/06/27 09:03:24;;;;;;;6.22;3.97;;;;;;;21.79;82.05;100331.66;4928977;29;20040;-69
2022/06/27 09:06:10;;;;;;;6.60;4.45;;;;;;;21.53;84.55;100331.41;4928156;29;20111;-71
2022/06/27 09:09:03;;;;;;;3.72;3.42;;;;;;;21.42;86.11;100336.94;4920379;28;20568;-70
2022/06/27 09:11:32;;;;;;;6.70;3.63;;;;;;;21.52;85.77;100338.66;4923816;28;20143;-70
2022/06/27 09:14:00;;;;;;;4.28;3.75;;;;;;;21.57;84.82;100338.19;4927912;29;20409;-70
2022/06/27 09:16:27;;;;;;;3.42;3.13;;;;;;;21.48;84.75;100342.63;4927817;29;20465;-70
2022/06/27 09:19:01;;;;;;;5.85;3.30;;;;;;;21.29;85.96;100345.31;4930533;28;20486;-69
2022/06/27 09:21:28;;;;;;;4.45;3.70;;;;;;;21.30;86.87;100344.31;4923334;29;20051;-70
2022/06/27 09:24:01;;;;;;;5.20;3.25;;;;;;;21.60;86.72;100333.38;4927445;28;20493;-70
2022/06/27 09:26:39;;;;;;;3.60;2.92;;;;;;;22.28;81.97;100339.47;4927860;29;20102;-71
2022/06/27 09:29:09;;;;;;;3.08;2.80;;;;;;;22.85;78.40;100342.03;4921047;28;20061;-71
2022/06/27 09:31:42;;;;;;;4.63;3.13;;;;;;;23.38;75.26;100336.66;4922325;28;20564;-70
2022/06/27 09:34:16;;;;;;;3.40;2.97;;;;;;;23.72;71.49;100326.84;4923593;28;20412;-72
2022/06/27 09:36:47;;;;;;;3.15;2.70;;;;;;;23.58;73.14;100330.13;4920912;28;20139;-70
2022/06/27 09:39:29;;;;;;;4.00;2.63;;;;;;;24.00;73.12;100330.22;4922228;28;20142;-71
2022/06/27 09:42:08;;;;;;;3.85;2.35;;;;;;;24.30;70.09;100347.00;4930493;28;20040;-70
2022/06/27 09:44:39;;;;;;;5.85;2.90;;;;;;;24.20;69.28;100346.25;4919189;28;20395;-71
2022/06/27 09:47:09;;;;;;;3.28;2.25;;;;;;;23.53;68.35;100336.97;4923860;28;20389;-71
2022/06/27 09:49:38;;;;;;;3.92;2.38;;;;;;;23.28;71.75;100344.00;4921349;29;20052;-73
2022/06/27 09:52:13;;;;;;;5.20;2.92;;;;;;;23.44;72.04;100330.66;4913848;28;20051;-70
2022/06/27 09:54:44;;;;;;;5.43;2.90;;;;;;;23.54;71.90;100334.13;4923571;28;20143;-69
2022/06/27 09:57:11;;;;;;;4.47;3.33;;;;;;;23.78;70.69;100341.56;4925119;28;20114;-69
2022/06/27 09:59:46;;;;;;;3.75;2.97;;;;;;;23.83;69.61;100331.13;4935049;28;20657;-71
2022/06/27 10:02:16;;;;;;;7.95;3.03;;;;;;;24.00;70.15;100324.81;4923567;28;20064;-69
2022/06/27 10:04:48;;;;;;;3.13;2.80;;;;;;;24.13;68.64;100333.34;4922574;28;20122;-69
2022/06/27 10:07:17;;;;;;;8.10;2.60;;;;;;;24.23;67.60;100329.69;4932207;28;20051;-70
2022/06/27 10:09:48;;;;;;;3.78;2.40;;;;;;;24.58;65.24;100334.94;4929972;28;20114;-70
2022/06/27 10:12:31;;;;;;;2.40;2.20;;;;;;;24.69;63.10;100325.69;4934604;28;20114;-69
2022/06/27 10:15:13;;;;;;;2.88;2.22;;;;;;;24.86;63.17;100337.41;4923822;29;20073;-69
2022/06/27 10:17:45;;;;;;;6.45;2.75;;;;;;;24.91;62.46;100324.19;4923102;28;20528;-70
2022/06/27 10:20:19;;;;;;;3.00;1.90;;;;;;;25.26;61.52;100318.53;4920889;28;20071;-69
2022/06/27 10:23:11;;;;;;;5.03;1.90;;;;;;;25.76;58.90;100331.94;4935701;28;20051;-70
2022/06/27 10:25:40;;;;;;;2.63;2.00;;;;;;;25.76;56.06;100326.53;4924277;28;20055;-70
2022/06/27 10:28:07;;;;;;;1.98;1.63;;;;;;;25.78;56.32;100326.34;4930180;28;20051;-68
2022/06/27 10:30:39;;;;;;;5.10;2.03;;;;;;;25.71;56.24;100345.16;4929812;28;20589;-70
2022/06/27 10:33:18;;;;;;;32.15;7.03;;;;;;;25.43;57.31;100341.06;4928210;28;20076;-70
2022/06/27 10:36:02;;;;;;;1.73;1.63;;;;;;;25.66;55.35;100360.25;4916377;28;20468;-69
2022/06/27 10:38:38;;;;;;;5.78;2.10;;;;;;;25.76;53.72;100367.22;4915152;29;20048;-68
2022/06/27 10:41:31;;;;;;;34.45;5.57;;;;;;;25.34;55.99;100377.34;4924144;28;20052;-70
2022/06/27 10:44:03;;;;;;;2.55;1.80;;;;;;;25.18;56.70;100380.88;4917765;29;20155;-69
2022/06/27 10:46:30;;;;;;;5.65;2.42;;;;;;;24.99;57.96;100375.75;4921015;29;20071;-70
2022/06/27 10:48:58;;;;;;;3.13;2.00;;;;;;;24.59;56.95;100363.72;4919372;28;20496;-69
2022/06/27 10:51:30;;;;;;;4.10;1.48;;;;;;;24.35;57.73;100325.72;4909753;28;20496;-69
2022/06/27 10:54:05;;;;;;;1.73;1.60;;;;;;;24.59;58.50;100319.53;4929878;28;20441;-71
2022/06/27 10:56:43;;;;;;;1.75;1.65;;;;;;;24.69;58.13;100359.03;4914639;29;20055;-70
2022/06/27 10:59:13;;;;;;;2.25;1.70;;;;;;;24.80;58.30;100330.78;4918449;28;20056;-69
2022/06/27 11:02:05;;;;;;;8.97;2.30;;;;;;;25.35;56.77;100332.94;4927144;28;20051;-69
2022/06/27 11:04:34;;;;;;;4.93;1.90;;;;;;;25.54;54.75;100313.63;4924073;28;20052;-68
2022/06/27 11:07:08;;;;;;;3.23;1.80;;;;;;;25.56;55.94;100356.84;4934145;28;20059;-70
2022/06/27 11:09:45;;;;;;;4.82;1.90;;;;;;;25.30;56.48;100343.44;4937492;28;20138;-69
2022/06/27 11:12:20;;;;;;;2.05;1.77;;;;;;;24.76;57.77;100341.09;4932674;28;20039;-69
2022/06/27 11:14:57;;;;;;;3.63;2.10;;;;;;;24.45;59.57;100359.75;4919503;28;20052;-69
2022/06/27 11:17:50;;;;;;;4.05;2.28;;;;;;;24.27;61.09;100363.53;4935898;28;20110;-70
2022/06/27 11:20:17;;;;;;;3.58;2.03;;;;;;;24.24;60.97;100370.13;4920614;28;20063;-72
2022/06/27 11:23:04;;;;;;;2.50;2.13;;;;;;;23.95;61.88;100367.72;4933263;28;20047;-70
2022/06/27 11:25:31;;;;;;;3.30;2.30;;;;;;;23.56;63.15;100374.53;4932898;28;20063;-71
2022/06/27 11:33:34;;;;;;;5.68;3.70;;;;;;;22.90;67.97;100409.94;4930189;28;20074;-69
2022/06/27 11:36:01;;;;;;;4.30;3.60;;;;;;;22.62;68.71;100420.72;4930127;29;20143;-68